Time;durP1;ratioP1;P1;durP2;ratioP2;P2;SDS_P1;SDS_P2;PMS_P1;PMS_P2;Temp;Humidity;BMP_temperature;BMP_pressure;BME280_temperature;BME280_humidity;BME280_pressure;Samples;Min_cycle;Max_cycle;Signal;HPM_P1;HPM_P2
2022/09/17 00:00:03;;;;;;;;;3.00;2.00;;;;;13.04;81.84;101215.41;4868572;29;47263;-80
2022/09/17 00:02:29;;;;;;;;;1.00;1.00;;;;;13.01;81.40;101213.63;4853738;29;45552;-80
2022/09/17 00:04:54;;;;;;;;;1.67;1.67;;;;;12.99;81.71;101208.25;4870064;29;45531;-81
2022/09/17 00:07:20;;;;;;;;;4.00;2.67;;;;;12.96;81.67;101201.97;4855007;29;44814;-81
2022/09/17 00:09:45;;;;;;;;;2.00;2.00;;;;;12.94;82.01;101201.06;4871020;29;45369;-81
2022/09/17 00:12:12;;;;;;;;;2.00;2.00;;;;;12.97;82.13;101207.34;4853481;29;45865;-81
2022/09/17 00:14:39;;;;;;;;;2.00;2.00;;;;;13.03;83.45;101214.53;4854397;29;45466;-80
2022/09/17 00:17:05;;;;;;;;;2.00;1.67;;;;;12.98;81.80;101197.53;4868663;29;45564;-81
2022/09/17 00:19:30;;;;;;;;;2.00;2.00;;;;;12.99;81.75;101208.25;4852403;29;46799;-81
2022/09/17 00:21:55;;;;;;;;;1.00;1.00;;;;;13.02;82.00;101215.38;4853230;29;45652;-81
2022/09/17 00:24:22;;;;;;;;;3.00;3.00;;;;;12.99;82.01;101205.56;4870433;29;45757;-80
2022/09/17 00:26:49;;;;;;;;;2.33;2.33;;;;;13.04;82.34;101218.09;4868586;29;45466;-81
2022/09/17 00:29:15;;;;;;;;;2.00;1.67;;;;;13.00;82.61;101223.38;4866886;29;46841;-81
2022/09/17 00:31:40;;;;;;;;;2.00;2.00;;;;;12.99;81.77;101221.59;4868176;29;45468;-81
2022/09/17 00:34:06;;;;;;;;;3.33;2.00;;;;;13.00;81.88;101218.03;4869320;29;45447;-81
2022/09/17 00:36:38;;;;;;;;;3.00;3.00;;;;;12.97;82.95;101217.13;4870005;29;45379;-81
2022/09/17 00:39:05;;;;;;;;;3.33;2.67;;;;;12.91;83.73;101219.72;4853381;29;48088;-81
2022/09/17 00:41:32;;;;;;;;;2.00;2.00;;;;;12.90;82.77;101225.94;4870499;29;45495;-81
2022/09/17 00:44:35;;;;;;;;;2.00;2.00;;;;;12.92;82.92;101224.16;4869674;29;45539;-81
2022/09/17 00:47:01;;;;;;;;;2.00;2.00;;;;;12.92;83.21;101225.06;4854870;29;45513;-81
2022/09/17 00:49:29;;;;;;;;;2.00;2.00;;;;;12.90;83.46;101210.78;4853223;29;46988;-81
2022/09/17 00:52:07;;;;;;;;;2.33;2.33;;;;;12.96;82.84;101221.53;4869598;29;45366;-81
2022/09/17 00:54:35;;;;;;;;;1.00;1.00;;;;;12.91;83.40;101211.72;4872154;29;45497;-81
2022/09/17 00:57:01;;;;;;;;;2.00;1.00;;;;;12.97;83.50;101218.00;4871687;29;45506;-81
2022/09/17 00:59:27;;;;;;;;;2.00;2.00;;;;;12.98;83.44;101222.47;4853068;29;47310;-81
2022/09/17 01:01:53;;;;;;;;;2.00;2.00;;;;;12.94;83.33;101211.75;4869990;29;45859;-81
2022/09/17 01:04:21;;;;;;;;;2.00;2.00;;;;;12.94;83.63;101211.75;4870330;29;45419;-81
2022/09/17 01:06:56;;;;;;;;;2.67;2.67;;;;;12.98;83.72;101217.13;4853521;29;45446;-81
2022/09/17 01:09:31;;;;;;;;;2.00;2.00;;;;;12.98;83.53;101224.25;4853372;29;47603;-81
2022/09/17 01:12:08;;;;;;;;;1.33;1.33;;;;;12.96;84.18;101226.00;4853406;29;45451;-81
2022/09/17 01:14:58;;;;;;;;;2.33;2.00;;;;;12.94;84.04;101228.63;4853563;29;45565;-81
2022/09/17 01:17:48;;;;;;;;;1.67;1.67;;;;;12.93;84.94;101232.22;4870967;29;45322;-81
2022/09/17 01:20:38;;;;;;;;;4.00;2.33;;;;;12.90;85.00;101228.59;4871856;29;45599;-82
2022/09/17 01:23:13;;;;;;;;;2.00;2.00;;;;;12.89;85.04;101240.16;4855575;29;45829;-82
2022/09/17 01:26:10;;;;;;;;;2.00;2.00;;;;;12.84;84.42;101236.53;4854487;29;45505;-82
2022/09/17 01:29:00;;;;;;;;;2.00;2.00;;;;;12.80;85.47;101232.91;4870450;29;45394;-81
2022/09/17 01:31:36;;;;;;;;;3.00;2.00;;;;;12.77;85.35;101236.44;4870274;29;47250;-81
2022/09/17 01:34:19;;;;;;;;;2.00;2.00;;;;;12.73;84.76;101239.06;4870312;29;44786;-82
2022/09/17 01:36:54;;;;;;;;;1.00;1.00;;;;;12.72;84.47;101245.25;4871497;29;44825;-82
2022/09/17 01:39:49;;;;;;;;;0.67;0.67;;;;;12.66;84.17;101231.84;4853992;29;45395;-81
2022/09/17 01:42:27;;;;;;;;;3.00;2.00;;;;;12.61;84.73;101237.13;4869789;29;45350;-81
2022/09/17 01:45:02;;;;;;;;;3.00;1.00;;;;;12.60;85.13;101241.56;4870067;29;45446;-81
2022/09/17 01:47:34;;;;;;;;;1.00;1.00;;;;;12.57;86.19;101248.63;4854907;29;45407;-81
2022/09/17 01:50:04;;;;;;;;;2.00;2.00;;;;;12.48;88.92;101248.50;4870290;29;45951;-81
2022/09/17 01:52:35;;;;;;;;;2.00;2.00;;;;;12.41;86.74;101236.84;4871228;29;45565;-81
2022/09/17 01:55:06;;;;;;;;;1.00;1.00;;;;;12.38;87.75;101253.72;4856275;29;44761;-81
2022/09/17 01:57:36;;;;;;;;;1.00;1.00;;;;;12.38;90.22;101255.47;4871847;29;45441;-81
2022/09/17 02:00:10;;;;;;;;;3.00;3.00;;;;;12.35;88.76;101263.44;4872206;29;45404;-83
2022/09/17 02:02:45;;;;;;;;;6.33;1.67;;;;;12.29;88.95;101263.34;4872215;29;45574;-81
2022/09/17 02:05:17;;;;;;;;;2.33;2.33;;;;;12.28;88.37;101256.19;4872337;29;45440;-82
2022/09/17 02:08:05;;;;;;;;;1.33;1.33;;;;;12.25;89.84;101266.81;4857058;29;45508;-81
2022/09/17 02:10:38;;;;;;;;;1.00;1.00;;;;;12.17;91.02;101256.91;4857483;29;44970;-81
2022/09/17 02:13:09;;;;;;;;;2.00;2.00;;;;;12.16;93.15;101256.94;4873952;29;45391;-82
2022/09/17 02:15:45;;;;;;;;;1.00;1.00;;;;;12.12;91.34;101250.63;4874757;29;44692;-82
2022/09/17 02:18:40;;;;;;;;;1.00;1.00;;;;;12.11;90.42;101247.94;4874680;29;45643;-81
2022/09/17 02:21:18;;;;;;;;;1.00;1.00;;;;;12.09;91.86;101245.25;4875021;29;45402;-82
2022/09/17 02:24:16;;;;;;;;;2.00;2.00;;;;;12.06;92.43;101245.22;4873088;29;47307;-82
2022/09/17 02:26:49;;;;;;;;;1.67;1.67;;;;;12.02;92.29;101238.03;4853446;29;45473;-82
2022/09/17 02:29:44;;;;;;;;;2.00;2.00;;;;;12.01;92.51;101244.22;4857627;29;45477;-82
2022/09/17 02:32:11;;;;;;;;;3.00;2.00;;;;;12.01;91.47;101241.56;4845859;29;45562;-81
2022/09/17 02:34:37;;;;;;;;;2.67;2.00;;;;;11.98;91.03;101236.19;4874265;29;45473;-81
2022/09/17 02:37:04;;;;;;;;;2.67;2.00;;;;;11.97;91.71;101234.38;4874076;29;45423;-81
2022/09/17 02:39:30;;;;;;;;;2.00;2.00;;;;;11.97;90.60;101234.38;4873915;29;44778;-81
2022/09/17 02:42:24;;;;;;;;;2.00;2.00;;;;;11.99;90.67;101237.97;4874464;29;45329;-82
2022/09/17 02:45:12;;;;;;;;;3.33;3.33;;;;;11.91;94.11;101234.28;4857019;29;47289;-81
2022/09/17 02:48:16;;;;;;;;;2.00;1.00;;;;;11.93;91.20;101238.75;4857107;29;45515;-81
2022/09/17 02:51:00;;;;;;;;;2.00;1.00;;;;;11.95;91.59;101241.47;4858406;29;45353;-81
2022/09/17 02:53:37;;;;;;;;;3.00;3.00;;;;;11.94;91.00;101245.91;4858980;29;45341;-81
2022/09/17 02:56:12;;;;;;;;;2.33;2.00;;;;;11.94;92.33;101245.00;4873515;29;46866;-81
2022/09/17 02:58:55;;;;;;;;;2.67;2.67;;;;;11.90;93.22;101244.06;4858616;29;45951;-82
2022/09/17 03:01:54;;;;;;;;;1.00;1.00;;;;;11.87;92.89;101243.97;4857638;29;45414;-82
2022/09/17 03:04:28;;;;;;;;;3.00;2.00;;;;;11.86;92.53;101249.28;4856581;29;45414;-82
2022/09/17 03:06:54;;;;;;;;;1.00;1.00;;;;;11.78;93.36;101230.50;4872840;29;46415;-81
2022/09/17 03:09:19;;;;;;;;;1.00;1.00;;;;;11.85;94.46;101243.03;4873171;29;45453;-81
2022/09/17 03:11:45;;;;;;;;;1.33;1.33;;;;;11.80;93.92;101242.06;4874175;29;45419;-81
2022/09/17 03:14:11;;;;;;;;;2.00;2.00;;;;;11.80;93.43;101242.06;4874044;29;45481;-81
2022/09/17 03:16:36;;;;;;;;;2.33;1.00;;;;;11.73;95.35;101235.72;4857556;29;46979;-80
2022/09/17 03:19:03;;;;;;;;;2.00;2.00;;;;;11.72;96.18;101239.28;4873823;29;44857;-81
2022/09/17 03:21:28;;;;;;;;;1.00;1.00;;;;;11.71;95.09;101250.78;4874217;29;45750;-81
2022/09/17 03:23:54;;;;;;;;;2.33;1.33;;;;;11.68;95.89;101249.88;4871795;29;45753;-81
2022/09/17 03:26:19;;;;;;;;;1.00;1.00;;;;;11.67;96.23;101240.94;4867145;29;47116;-82
2022/09/17 03:28:44;;;;;;;;;1.00;1.00;;;;;11.70;96.49;101249.00;4853261;29;45276;-81
2022/09/17 03:31:10;;;;;;;;;1.33;1.33;;;;;11.67;95.80;101245.38;4836337;29;45394;-81
2022/09/17 03:33:35;;;;;;;;;2.00;2.00;;;;;11.63;95.05;101247.09;4836829;29;45405;-82
2022/09/17 03:36:01;;;;;;;;;1.33;1.33;;;;;11.64;95.83;101240.91;4851332;29;47244;-82
2022/09/17 03:38:26;;;;;;;;;1.00;1.00;;;;;11.71;95.99;101247.22;4851607;29;45406;-82
2022/09/17 03:41:03;;;;;;;;;2.00;2.00;;;;;11.72;95.30;101257.94;4836947;29;45691;-81
2022/09/17 03:43:29;;;;;;;;;1.00;1.00;;;;;11.63;96.22;101244.44;4852364;29;45621;-82
2022/09/17 03:45:54;;;;;;;;;3.00;2.67;;;;;11.66;97.48;101254.28;4852762;29;45227;-82
2022/09/17 03:48:20;;;;;;;;;4.00;2.00;;;;;11.61;96.85;101248.84;4852697;29;45449;-81
2022/09/17 03:50:46;;;;;;;;;2.00;2.00;;;;;11.58;96.69;101251.47;4851710;29;45050;-81
2022/09/17 03:53:11;;;;;;;;;1.67;1.67;;;;;11.63;96.98;101259.53;4851928;29;45380;-81
2022/09/17 03:55:37;;;;;;;;;1.00;1.00;;;;;11.62;98.46;101253.31;4851938;29;46336;-81
2022/09/17 03:58:03;;;;;;;;;1.00;1.00;;;;;11.59;99.51;101254.16;4852051;29;45379;-81
2022/09/17 04:00:28;;;;;;;;;3.00;1.00;;;;;11.51;98.08;101244.22;4850459;29;45385;-81
2022/09/17 04:02:54;;;;;;;;;1.33;1.33;;;;;11.55;97.76;101256.72;4835172;29;45902;-82
2022/09/17 04:05:19;;;;;;;;;1.00;1.00;;;;;11.54;98.11;101257.59;4832411;29;47856;-82
2022/09/17 04:07:51;;;;;;;;;3.00;3.00;;;;;11.62;97.35;101274.63;4834446;29;45778;-82
2022/09/17 04:10:17;;;;;;;;;3.00;2.00;;;;;11.63;97.82;101275.50;4850052;29;45429;-81
2022/09/17 04:12:42;;;;;;;;;2.00;2.00;;;;;11.59;99.20;101277.22;4852792;29;45418;-83
2022/09/17 04:15:08;;;;;;;;;1.00;1.00;;;;;11.55;98.18;101278.03;4852198;29;45420;-81
2022/09/17 04:17:33;;;;;;;;;2.00;2.00;;;;;11.57;97.90;101276.28;4835237;29;45539;-81
2022/09/17 04:19:59;;;;;;;;;1.00;1.00;;;;;11.57;98.42;101273.63;4852295;29;45728;-81
2022/09/17 04:22:25;;;;;;;;;1.00;1.00;;;;;11.57;98.33;101274.53;4852200;29;44892;-81
2022/09/17 04:24:50;;;;;;;;;1.67;1.67;;;;;11.57;98.15;101276.28;4852758;29;45488;-81
2022/09/17 04:27:16;;;;;;;;;1.67;1.67;;;;;11.56;98.33;101279.84;4835951;29;45783;-81
2022/09/17 04:29:41;;;;;;;;;2.00;2.00;;;;;11.52;98.20;101283.31;4850711;29;45425;-82
2022/09/17 04:32:07;;;;;;;;;3.00;1.00;;;;;11.49;99.51;101285.91;4850796;29;45812;-82
2022/09/17 04:34:33;;;;;;;;;1.67;1.00;;;;;11.51;99.04;101301.06;4835019;29;48021;-83
2022/09/17 04:36:58;;;;;;;;;1.00;1.00;;;;;11.50;99.15;101303.69;4850743;29;45394;-82
2022/09/17 04:39:23;;;;;;;;;1.00;1.00;;;;;11.49;99.04;101293.91;4843097;29;45369;-82
2022/09/17 04:41:49;;;;;;;;;1.00;1.00;;;;;11.46;99.40;101296.50;4854996;29;45731;-81
2022/09/17 04:44:14;;;;;;;;;1.00;1.00;;;;;11.47;99.69;101295.63;4869927;29;47140;-82
2022/09/17 04:46:40;;;;;;;;;1.00;1.00;;;;;11.43;99.87;101283.13;4872335;29;45448;-82
2022/09/17 04:49:06;;;;;;;;;3.00;2.00;;;;;11.43;100.00;101294.66;4872011;29;45528;-82
2022/09/17 04:51:31;;;;;;;;;1.00;1.00;;;;;11.44;100.00;101292.94;4871175;29;45233;-82
2022/09/17 04:53:56;;;;;;;;;1.00;1.00;;;;;11.44;100.00;101295.59;4870586;29;45795;-82
2022/09/17 04:56:22;;;;;;;;;2.00;2.00;;;;;11.39;100.00;101298.13;4870035;29;45742;-82
2022/09/17 04:58:47;;;;;;;;;1.33;1.33;;;;;11.35;100.00;101302.53;4854668;29;45432;-83
2022/09/17 05:01:13;;;;;;;;;1.67;1.67;;;;;11.33;100.00;101304.28;4854970;29;45387;-82
2022/09/17 05:03:39;;;;;;;;;1.00;1.00;;;;;11.30;100.00;101298.88;4856267;29;47015;-82
2022/09/17 05:06:05;;;;;;;;;1.00;1.00;;;;;11.30;100.00;101303.31;4870955;29;45488;-82
2022/09/17 05:08:30;;;;;;;;;2.00;2.00;;;;;11.27;100.00;101305.88;4871406;29;44811;-82
2022/09/17 05:10:55;;;;;;;;;1.00;1.00;;;;;11.25;100.00;101308.53;4871260;29;45479;-82
2022/09/17 05:13:21;;;;;;;;;5.00;3.00;;;;;11.21;100.00;101294.25;4871098;29;46255;-82
2022/09/17 05:15:46;;;;;;;;;1.33;1.33;;;;;11.27;100.00;101304.16;4870730;29;45701;-82
2022/09/17 05:18:12;;;;;;;;;1.00;1.00;;;;;11.29;100.00;101315.72;4853779;29;45700;-82
2022/09/17 05:20:37;;;;;;;;;0.33;0.33;;;;;11.27;100.00;101304.16;4871200;29;45450;-82
2022/09/17 05:23:03;;;;;;;;;2.00;2.00;;;;;11.24;100.00;101308.50;4875235;29;45382;-82
2022/09/17 05:25:29;;;;;;;;;1.00;1.00;;;;;11.29;100.00;101320.13;4875051;29;45561;-83
2022/09/17 05:27:55;;;;;;;;;3.00;3.00;;;;;11.29;100.00;101323.72;4875124;29;44839;-82
2022/09/17 05:30:21;;;;;;;;;1.67;1.67;;;;;11.34;100.00;101321.13;4858623;29;45457;-81
2022/09/17 05:32:47;;;;;;;;;1.00;1.00;;;;;11.37;100.00;101322.09;4873185;29;46841;-81
2022/09/17 05:35:13;;;;;;;;;1.00;1.00;;;;;11.40;100.00;101308.81;4873826;29;45467;-81
2022/09/17 05:37:39;;;;;;;;;1.00;1.00;;;;;11.37;100.00;101300.78;4875711;29;45217;-81
2022/09/17 05:40:07;;;;;;;;;2.00;2.00;;;;;11.42;100.00;101316.84;4875897;29;45402;-81
2022/09/17 05:42:33;;;;;;;;;2.00;2.00;;;;;11.40;100.00;101306.16;4872442;29;46488;-82
2022/09/17 05:44:58;;;;;;;;;0.33;0.33;;;;;11.40;100.00;101308.81;4874034;29;45408;-82
2022/09/17 05:47:25;;;;;;;;;1.00;1.00;;;;;11.40;100.00;101316.81;4873543;29;45511;-82
2022/09/17 05:49:50;;;;;;;;;1.67;1.67;;;;;11.36;100.00;101314.97;4872907;29;45644;-82
2022/09/17 05:52:15;;;;;;;;;2.00;2.00;;;;;11.35;100.00;101312.25;4872574;29;46131;-82
2022/09/17 05:54:42;;;;;;;;;2.00;2.00;;;;;11.38;100.00;101313.22;4856017;29;45405;-83
2022/09/17 05:57:07;;;;;;;;;3.67;3.67;;;;;11.47;100.00;101319.59;4870543;29;45376;-82
2022/09/17 05:59:34;;;;;;;;;2.00;2.00;;;;;11.45;100.00;101318.66;4874086;29;45420;-82
2022/09/17 06:01:59;;;;;;;;;4.00;2.33;;;;;11.46;100.00;101320.50;4871436;29;47883;-82
2022/09/17 06:04:25;;;;;;;;;7.00;3.33;;;;;11.47;100.00;101322.25;4856299;29;45218;-82
2022/09/17 06:06:51;;;;;;;;;2.33;2.00;;;;;11.52;100.00;101336.59;4872398;29;45461;-82
2022/09/17 06:09:16;;;;;;;;;1.00;1.00;;;;;11.53;100.00;101327.72;4872252;29;45280;-82
2022/09/17 06:11:42;;;;;;;;;2.00;2.00;;;;;11.55;100.00;101328.63;4873034;29;45265;-82
2022/09/17 06:14:08;;;;;;;;;2.00;2.00;;;;;11.54;100.00;101324.19;4873297;29;45198;-82
2022/09/17 06:16:34;;;;;;;;;1.33;1.33;;;;;11.59;100.00;101327.81;4870609;29;45379;-82
2022/09/17 06:18:59;;;;;;;;;2.00;2.00;;;;;11.64;100.00;101326.16;4870727;29;45520;-82
2022/09/17 06:21:25;;;;;;;;;2.00;2.00;;;;;11.69;99.93;101329.78;4870669;29;46782;-82
2022/09/17 06:23:51;;;;;;;;;2.33;2.33;;;;;11.74;99.19;101338.78;4871554;29;45404;-83
2022/09/17 06:26:17;;;;;;;;;4.00;4.00;;;;;11.81;99.21;101343.38;4873549;29;45532;-82
2022/09/17 06:28:43;;;;;;;;;2.67;2.67;;;;;11.84;98.87;101338.97;4873320;29;45489;-82
2022/09/17 06:31:10;;;;;;;;;7.00;3.67;;;;;11.95;98.61;101343.63;4869973;29;46735;-83
2022/09/17 06:33:36;;;;;;;;;4.67;3.33;;;;;12.01;97.54;101348.19;4870821;29;45848;-82
2022/09/17 06:39:24;;;;;;;;;6.67;3.67;;;;;12.06;96.05;101334.94;4872788;29;45458;-81
2022/09/17 06:41:49;;;;;;;;;2.67;2.67;;;;;12.04;96.00;101342.94;4870767;29;46903;-81
2022/09/17 06:44:15;;;;;;;;;2.00;2.00;;;;;12.13;95.75;101351.06;4871308;29;44843;-81
2022/09/17 06:46:41;;;;;;;;;2.00;2.00;;;;;12.13;95.45;101351.06;4854718;29;45353;-81
2022/09/17 06:49:07;;;;;;;;;2.00;2.00;;;;;12.22;95.04;101366.34;4870788;29;45627;-81
2022/09/17 06:51:32;;;;;;;;;1.67;1.67;;;;;12.17;94.79;101350.25;4871855;29;45411;-81
2022/09/17 06:53:58;;;;;;;;;1.00;1.00;;;;;12.24;94.12;101356.63;4870959;29;45320;-80
2022/09/17 06:56:23;;;;;;;;;1.67;1.00;;;;;12.21;93.83;101352.09;4871750;29;45404;-80
2022/09/17 06:58:48;;;;;;;;;1.00;1.00;;;;;12.21;93.19;101344.09;4874503;29;44830;-83
2022/09/17 07:01:14;;;;;;;;;3.33;3.00;;;;;12.24;93.27;101351.28;4874077;29;46617;-83
2022/09/17 07:03:42;;;;;;;;;2.00;2.00;;;;;12.36;92.68;101361.22;4872755;29;45470;-83
2022/09/17 07:06:11;;;;;;;;;2.00;2.00;;;;;12.47;92.46;101359.66;4872622;29;45574;-83
2022/09/17 07:08:38;;;;;;;;;3.67;2.00;;;;;12.54;92.66;101357.97;4872881;29;45621;-83
2022/09/17 07:11:04;;;;;;;;;1.00;1.00;;;;;12.71;91.33;101358.25;4872084;29;47004;-83
2022/09/17 07:13:30;;;;;;;;;1.00;1.00;;;;;12.73;90.69;101345.81;4870408;29;45441;-83
2022/09/17 07:15:58;;;;;;;;;0.00;0.00;;;;;12.84;88.58;101357.53;4870064;29;45422;-83
2022/09/17 07:18:24;;;;;;;;;1.67;1.00;;;;;12.81;86.27;101354.84;4869980;29;45412;-83
2022/09/17 07:20:54;;;;;;;;;3.00;1.00;;;;;12.84;86.11;101360.22;4854811;29;46890;-83
2022/09/17 07:23:25;;;;;;;;;1.00;1.00;;;;;12.86;84.63;101345.09;4870322;29;45543;-83
2022/09/17 07:25:55;;;;;;;;;1.00;1.00;;;;;12.87;84.31;101360.25;4870364;29;44921;-83
2022/09/17 07:28:22;;;;;;;;;3.33;1.33;;;;;12.94;84.50;101353.22;4868638;29;45371;-83
2022/09/17 07:30:48;;;;;;;;;1.33;1.33;;;;;12.98;83.12;101358.63;4851934;29;45488;-80
2022/09/17 07:33:15;;;;;;;;;1.00;1.00;;;;;12.97;83.30;101351.50;4834921;29;44838;-81
2022/09/17 07:35:40;;;;;;;;;1.33;1.33;;;;;13.05;82.91;101361.38;4836039;29;45176;-81
2022/09/17 07:38:05;;;;;;;;;0.00;0.00;;;;;13.03;82.94;101358.72;4835393;29;45578;-81
2022/09/17 07:40:31;;;;;;;;;0.00;0.00;;;;;13.19;82.72;101362.50;4866543;29;45405;-81
2022/09/17 07:42:57;;;;;;;;;2.00;0.33;;;;;13.24;80.83;101359.88;4854180;29;45372;-81
2022/09/17 07:45:23;;;;;;;;;2.00;0.67;;;;;13.31;79.42;101364.44;4854902;29;45460;-81
2022/09/17 07:47:48;;;;;;;;;1.00;1.00;;;;;13.37;79.21;101357.41;4854409;29;45585;-82
2022/09/17 07:50:14;;;;;;;;;1.33;1.33;;;;;13.49;80.98;101355.75;4871720;29;45392;-82
2022/09/17 07:52:46;;;;;;;;;0.00;0.00;;;;;13.56;79.06;101346.94;4857863;29;45793;-82
2022/09/17 07:55:12;;;;;;;;;1.00;0.33;;;;;13.56;77.04;101339.81;4873071;29;44787;-81
2022/09/17 07:57:39;;;;;;;;;1.00;1.00;;;;;13.60;76.54;101346.09;4874040;29;45458;-81
2022/09/17 08:00:05;;;;;;;;;0.00;0.00;;;;;13.67;77.89;101355.97;4872959;29;47000;-82
2022/09/17 08:02:30;;;;;;;;;0.00;0.00;;;;;13.72;76.75;101350.69;4873563;29;45409;-83
2022/09/17 08:04:56;;;;;;;;;1.00;0.00;;;;;13.76;76.65;101353.41;4857914;29;45496;-83
2022/09/17 08:07:21;;;;;;;;;0.33;0.33;;;;;13.83;74.58;101359.72;4856921;29;45356;-82
2022/09/17 08:09:47;;;;;;;;;0.00;0.00;;;;;13.88;75.61;101362.44;4873938;29;46425;-82
2022/09/17 08:12:12;;;;;;;;;1.00;1.00;;;;;13.93;75.81;101363.38;4873257;29;44800;-82
2022/09/17 08:14:37;;;;;;;;;2.00;0.00;;;;;14.00;75.19;101371.47;4857312;29;45993;-82
2022/09/17 08:17:07;;;;;;;;;1.00;1.00;;;;;14.03;74.84;101359.91;4874316;29;45370;-82
2022/09/17 08:19:33;;;;;;;;;0.00;0.00;;;;;14.05;73.87;101365.28;4873936;29;46177;-83
2022/09/17 08:21:58;;;;;;;;;0.67;0.67;;;;;14.05;73.33;101362.59;4873389;29;45443;-82
2022/09/17 08:24:24;;;;;;;;;1.00;1.00;;;;;14.11;74.35;101363.56;4872535;29;45378;-82
2022/09/17 08:26:49;;;;;;;;;2.00;2.00;;;;;14.23;74.20;101368.13;4873346;29;45455;-83
2022/09/17 08:29:15;;;;;;;;;1.00;1.00;;;;;14.32;73.46;101359.28;4872645;29;46317;-82
2022/09/17 08:31:40;;;;;;;;;0.00;0.00;;;;;14.46;72.60;101365.66;4855203;29;45458;-82
2022/09/17 08:34:07;;;;;;;;;1.00;1.00;;;;;14.49;72.38;101364.78;4872090;29;45563;-83
2022/09/17 08:36:33;;;;;;;;;0.00;0.00;;;;;14.58;73.13;101365.78;4872989;29;45514;-82
2022/09/17 08:38:58;;;;;;;;;1.00;1.00;;;;;14.71;72.82;101371.25;4853547;29;46927;-82
2022/09/17 08:41:41;;;;;;;;;1.25;1.25;;;;;14.83;71.44;101371.31;4853192;29;45541;-83
2022/09/17 08:47:37;;;;;;;;;0.33;0.00;;;;;14.90;71.53;101367.78;4870754;29;45471;-82
2022/09/17 08:50:27;;;;;;;;;0.00;0.00;;;;;14.94;70.08;101374.94;4870314;29;45465;-82
2022/09/17 08:52:53;;;;;;;;;2.00;0.00;;;;;15.00;70.72;101385.69;4869071;29;45475;-82
2022/09/17 08:55:39;;;;;;;;;1.00;1.00;;;;;15.06;70.50;101383.97;4870613;29;44764;-82
2022/09/17 08:58:27;;;;;;;;;0.00;0.00;;;;;15.09;69.94;101383.97;4869278;29;45442;-82
2022/09/17 09:01:08;;;;;;;;;4.33;1.00;;;;;15.17;70.44;101390.28;4870917;29;45467;-83
2022/09/17 09:03:47;;;;;;;;;0.75;0.75;;;;;15.11;68.65;101398.28;4870592;29;45446;-82
2022/09/17 09:06:14;;;;;;;;;1.75;1.75;;;;;15.09;69.77;101383.97;4853283;29;45616;-82
2022/09/17 09:08:58;;;;;;;;;0.00;0.00;;;;;15.12;69.84;101386.66;4869744;29;45018;-82
2022/09/17 09:11:27;;;;;;;;;0.67;0.67;;;;;15.20;69.77;101387.59;4870756;29;45684;-82
2022/09/17 09:13:57;;;;;;;;;1.00;1.00;;;;;15.26;69.03;101390.31;4868851;29;45483;-82
2022/09/17 09:16:28;;;;;;;;;1.00;1.00;;;;;15.26;67.98;101373.34;4854656;29;44815;-82
2022/09/17 09:18:58;;;;;;;;;0.00;0.00;;;;;15.31;68.87;101384.97;4870393;29;45457;-82
2022/09/17 09:21:30;;;;;;;;;0.00;0.00;;;;;15.34;67.12;101385.88;4869261;29;45549;-82
2022/09/17 09:24:14;;;;;;;;;2.50;1.00;;;;;15.39;67.98;101394.84;4867384;29;45424;-83
2022/09/17 09:26:46;;;;;;;;;0.67;0.67;;;;;15.53;66.49;101394.00;4869703;29;44803;-83
2022/09/17 09:29:50;;;;;;;;;0.00;0.00;;;;;15.67;66.18;101377.97;4869044;29;45599;-82
2022/09/17 09:32:35;;;;;;;;;1.00;0.00;;;;;15.86;63.94;101389.72;4863028;29;45524;-82
2022/09/17 09:35:11;;;;;;;;;0.00;0.00;;;;;15.98;65.40;101398.66;4867789;29;45628;-83
2022/09/17 09:37:42;;;;;;;;;1.00;1.00;;;;;16.08;64.95;101393.31;4868479;29;45489;-82
2022/09/17 09:40:22;;;;;;;;;0.00;0.00;;;;;16.23;62.75;101401.38;4869225;29;45405;-83
2022/09/17 09:42:52;;;;;;;;;0.00;0.00;;;;;16.31;60.92;101409.47;4867480;29;46742;-83
2022/09/17 09:45:28;;;;;;;;;0.67;0.67;;;;;16.32;60.16;101395.13;4869922;29;45462;-82
2022/09/17 09:48:19;;;;;;;;;0.67;0.67;;;;;16.30;60.25;101402.28;4868683;29;45441;-82
2022/09/17 09:51:00;;;;;;;;;1.33;0.33;;;;;16.47;58.46;101400.50;4869020;29;45359;-82
2022/09/17 09:53:52;;;;;;;;;1.00;1.00;;;;;16.56;59.13;101403.22;4870349;29;45491;-83
2022/09/17 09:56:23;;;;;;;;;1.33;0.00;;;;;16.62;58.33;101409.47;4871349;29;45436;-82
2022/09/17 09:58:48;;;;;;;;;0.00;0.00;;;;;16.60;59.13;101391.56;4870502;29;45360;-82
2022/09/17 10:01:19;;;;;;;;;1.33;1.33;;;;;16.75;59.21;101395.16;4869509;29;45681;-83
2022/09/17 10:03:45;;;;;;;;;1.00;1.00;;;;;16.78;57.34;101389.75;4870163;29;45385;-83
2022/09/17 10:06:13;;;;;;;;;1.00;1.00;;;;;16.79;56.11;101402.31;4869833;29;45377;-83
2022/09/17 10:08:41;;;;;;;;;0.00;0.00;;;;;16.74;57.12;101394.25;4873233;29;45463;-82
2022/09/17 10:11:10;;;;;;;;;1.75;1.00;;;;;16.83;57.48;101390.69;4871480;29;45522;-83
2022/09/17 10:13:36;;;;;;;;;0.00;0.00;;;;;16.87;56.91;101395.16;4856779;29;47992;-83
2022/09/17 10:16:24;;;;;;;;;0.00;0.00;;;;;16.85;56.90;101402.34;4872600;29;45429;-83
2022/09/17 10:19:18;;;;;;;;;0.50;0.50;;;;;16.76;56.26;101405.91;4872745;29;44836;-83
2022/09/17 10:21:43;;;;;;;;;0.00;0.00;;;;;16.79;56.32;101392.44;4852191;29;44936;-83
2022/09/17 10:24:24;;;;;;;;;0.25;0.00;;;;;16.89;56.90;101392.47;4872304;29;46878;-83
2022/09/17 10:26:50;;;;;;;;;0.00;0.00;;;;;17.02;56.49;101393.34;4873152;29;45444;-83
2022/09/17 10:29:19;;;;;;;;;0.00;0.00;;;;;17.06;56.45;101395.13;4855684;29;45542;-83
2022/09/17 10:31:53;;;;;;;;;0.00;0.00;;;;;17.04;54.79;101396.91;4872795;29;45429;-82
2022/09/17 10:34:30;;;;;;;;;0.00;0.00;;;;;17.18;55.75;101379.84;4870984;29;45556;-83
2022/09/17 10:36:56;;;;;;;;;0.00;0.00;;;;;17.49;55.76;101379.75;4856145;29;45365;-82
2022/09/17 10:39:48;;;;;;;;;0.25;0.25;;;;;17.73;54.57;101378.75;4873229;29;45441;-80
2022/09/17 10:42:15;;;;;;;;;0.00;0.00;;;;;17.72;52.56;101371.56;4857956;29;44949;-80
2022/09/17 10:44:55;;;;;;;;;0.00;0.00;;;;;17.57;53.23;101368.94;4873141;29;45669;-83
2022/09/17 10:47:36;;;;;;;;;0.00;0.00;;;;;17.43;51.29;101381.56;4856331;29;45525;-82
2022/09/17 10:50:03;;;;;;;;;0.67;0.67;;;;;17.34;48.69;101377.13;4874473;29;45481;-83
2022/09/17 10:52:28;;;;;;;;;0.00;0.00;;;;;17.19;50.75;101370.91;4875062;29;45354;-83
2022/09/17 10:58:46;;;;;;;;;0.00;0.00;;;;;17.35;51.27;101377.13;4875725;29;45739;-83
2022/09/17 11:01:44;;;;;;;;;0.00;0.00;;;;;17.42;50.74;101367.22;4857955;29;45317;-82
2022/09/17 11:04:30;;;;;;;;;1.50;1.00;;;;;17.35;50.48;101366.38;4874796;29;45201;-81
2022/09/17 11:07:19;;;;;;;;;0.00;0.00;;;;;17.30;45.93;101369.97;4857174;29;47479;-82
2022/09/17 11:10:10;;;;;;;;;0.25;0.25;;;;;17.31;48.36;101356.53;4874867;29;45454;-81
2022/09/17 11:13:00;;;;;;;;;0.00;0.00;;;;;17.36;49.81;101349.31;4874930;29;44860;-81
2022/09/17 11:15:37;;;;;;;;;2.25;0.00;;;;;17.39;48.04;101359.16;4876392;29;44872;-81
2022/09/17 11:18:23;;;;;;;;;0.00;0.00;;;;;17.43;48.80;101342.16;4873843;29;45374;-82
2022/09/17 11:21:26;;;;;;;;;0.67;0.67;;;;;17.39;49.31;101346.63;4873926;29;45563;-81
2022/09/17 11:23:58;;;;;;;;;0.00;0.00;;;;;17.29;47.95;101339.50;4874633;29;44798;-82
2022/09/17 11:26:53;;;;;;;;;0.00;0.00;;;;;17.35;45.84;101336.78;4871991;29;45453;-81
2022/09/17 11:30:02;;;;;;;;;0.00;0.00;;;;;17.50;47.52;101334.94;4871506;29;47666;-81
2022/09/17 11:32:42;;;;;;;;;0.00;0.00;;;;;17.52;45.05;101347.47;4872227;29;45707;-82
2022/09/17 11:35:14;;;;;;;;;0.00;0.00;;;;;17.45;47.87;101325.97;4872365;29;44878;-82
2022/09/17 11:37:51;;;;;;;;;2.00;0.00;;;;;17.42;48.84;101342.16;4872832;29;45390;-82
2022/09/17 11:40:22;;;;;;;;;1.00;1.00;;;;;17.33;48.02;101332.31;4873429;29;45458;-82
2022/09/17 11:43:20;;;;;;;;;0.50;0.00;;;;;17.37;46.09;101336.75;4870079;29;45425;-82
2022/09/17 11:45:58;;;;;;;;;1.00;1.00;;;;;17.45;46.92;101337.66;4873081;29;45489;-82
2022/09/17 11:48:33;;;;;;;;;0.00;0.00;;;;;17.52;47.13;101349.25;4873260;29;45305;-83
2022/09/17 11:51:11;;;;;;;;;1.00;1.00;;;;;17.38;45.38;101352.91;4873180;29;46835;-82
2022/09/17 11:54:04;;;;;;;;;0.00;0.00;;;;;17.31;44.87;101340.41;4873423;29;45449;-82